MSC Nuria — 3ESE2 — position and weather

sailwx.info

Track history (hours):
 
Tides and Currents Weather Stations Pressure Air Temp Water Temp Dewpoint Dewpoint Depression Visibility Wind Speed Wind Dir Waves Ship Positions

MSC Nuria

Last reported at 2017-Jan-05 13:25 UTC. Time now 2017-Jan-17 21:26 UTC.
Position N 24°34' W 079°36'.
Warning: this ship's position is 12 days out of date.

Length 275 m; draft 10 m.

Type: Ship (hazmat cat A). MMSI: 370272977.

Date/timePositionNaut miles runAvg speedWind from/ knotsBaromVisibWave heightAir tempDewpointWater temp
2017-Jan-05 13:25N 24°34' W 079°36'1816.9
2017-Jan-05 12:19N 24°52' W 079°40'1213.8
2017-Jan-05 11:29N 25°03' W 079°45'1312.9
2017-Jan-05 10:31N 25°14' W 079°52'1212.2
2017-Jan-05 09:33N 25°25' W 079°55'1111.4
2017-Jan-05 08:33N 25°36' W 079°59'1110.9
2017-Jan-05 07:33N 25°46' W 080°04'5 5.5
2017-Jan-05 06:34N 25°46' W 080°10'0 0.4
2017-Jan-05 05:32N 25°46' W 080°10'0 0.0
2017-Jan-05 04:29N 25°46' W 080°10'0 0.0
2017-Jan-05 03:31N 25°46' W 080°10'0 0.0
2017-Jan-05 02:31N 25°46' W 080°10'0 0.0
2017-Jan-05 01:34N 25°46' W 080°10'0 0.0
2017-Jan-05 00:33N 25°46' W 080°10'0 0.0
2017-Jan-04 23:33N 25°46' W 080°10'0 0.0
2017-Jan-04 22:32N 25°46' W 080°10'0 0.0
2017-Jan-04 21:32N 25°46' W 080°10'0 0.0
2017-Jan-04 20:31N 25°46' W 080°10'0 0.0
2017-Jan-04 19:31N 25°46' W 080°10'0 0.0
2017-Jan-04 18:33N 25°46' W 080°10'0 0.0
2017-Jan-04 17:33N 25°46' W 080°10'0 0.0
2017-Jan-04 16:33N 25°46' W 080°10'0 0.0
2017-Jan-04 15:32N 25°46' W 080°10'0 0.0
2017-Jan-04 14:32N 25°46' W 080°10'0 0.0
2017-Jan-04 13:31N 25°46' W 080°10'0 0.0
2017-Jan-04 12:31N 25°46' W 080°10'0 0.0
2017-Jan-04 11:33N 25°46' W 080°10'0 0.0
2017-Jan-04 10:33N 25°46' W 080°10'2 1.8
2017-Jan-04 09:33N 25°46' W 080°08'6 6.4
2017-Jan-04 08:33N 25°44' W 080°01'9 9.1
2017-Jan-04 07:33N 25°35' W 079°60'1413.9
2017-Jan-04 06:33N 25°21' W 080°00'2019.4
2017-Jan-04 05:31N 25°01' W 080°00'  
2016-Dec-31 08:08N 29°29' W 094°51'711.6
2016-Dec-31 07:33N 29°34' W 094°56'5 4.5
2016-Dec-31 06:32N 29°37' W 095°00'0 0.0
2016-Dec-31 05:31N 29°37' W 095°00'0 0.0
2016-Dec-31 04:31N 29°37' W 095°00'0 0.0
2016-Dec-31 03:33N 29°37' W 095°00'0 0.0
2016-Dec-31 02:33N 29°37' W 095°00'0 0.0
2016-Dec-31 01:29N 29°37' W 095°00'0 0.0
2016-Dec-31 00:32N 29°37' W 095°00'0 0.0
2016-Dec-30 23:32N 29°37' W 095°00'0 0.0
2016-Dec-30 22:31N 29°37' W 095°00'0 0.0
2016-Dec-30 21:31N 29°37' W 095°00'0 0.0
2016-Dec-30 20:33N 29°37' W 095°00'0 0.0
2016-Dec-30 19:33N 29°37' W 095°00'0 0.0
2016-Dec-30 18:32N 29°37' W 095°00'0 0.0
2016-Dec-30 17:32N 29°37' W 095°00'0 0.0
2016-Dec-30 16:32N 29°37' W 095°00'0 0.0
2016-Dec-30 15:31N 29°37' W 095°00'0 0.0
2016-Dec-30 14:31N 29°37' W 095°00'0 0.0
2016-Dec-30 13:33N 29°37' W 095°00'0 0.0
2016-Dec-30 12:33N 29°37' W 095°00'0 0.0
2016-Dec-30 11:32N 29°37' W 095°00'0 0.0
2016-Dec-30 10:29N 29°37' W 095°00'0 0.0
2016-Dec-30 09:32N 29°37' W 095°00'0 0.0
2016-Dec-30 08:28N 29°37' W 095°00'0 0.0
2016-Dec-30 07:31N 29°37' W 095°00'0 0.0
2016-Dec-30 06:33N 29°37' W 095°00'0 0.0
2016-Dec-30 05:33N 29°37' W 095°00'0 0.0
2016-Dec-30 04:32N 29°37' W 095°00'0 0.0
2016-Dec-30 03:32N 29°37' W 095°00'0 0.0
2016-Dec-30 02:32N 29°37' W 095°00'0 0.0
2016-Dec-30 01:31N 29°37' W 095°00'0 0.0
2016-Dec-30 00:31N 29°37' W 095°00'0 0.0
2016-Dec-29 23:33N 29°37' W 095°00'0 0.0
2016-Dec-29 22:33N 29°37' W 095°00'0 0.0
2016-Dec-29 21:33N 29°37' W 095°00'0 0.0
2016-Dec-29 20:32N 29°37' W 095°00'0 0.0
2016-Dec-29 19:31N 29°37' W 095°00'0 0.0
2016-Dec-29 18:31N 29°37' W 095°00'0 0.0
2016-Dec-29 17:31N 29°37' W 095°00'0 0.0
2016-Dec-29 16:33N 29°37' W 095°00'0 0.2
2016-Dec-29 15:34N 29°37' W 095°00'2 2.2
2016-Dec-29 14:33N 29°37' W 094°58'9 8.5
2016-Dec-29 13:34N 29°30' W 094°52'  
Track history (hours):
 
Tides and Currents Weather Stations Pressure Air Temp Water Temp Dewpoint Dewpoint Depression Visibility Wind Speed Wind Dir Waves Ship Positions

MSC Nuria

Last reported at 2017-Jan-05 13:25 UTC. Time now 2017-Jan-17 21:26 UTC.
Position N 24°34' W 079°36'.
Warning: this ship's position is 12 days out of date.

Length 275 m; draft 10 m.

Type: Ship (hazmat cat A). MMSI: 370272977.

Date/timePositionNaut miles runAvg speedWind from/ knotsBaromVisibWave heightAir tempDewpointWater temp
2017-Jan-05 13:25N 24°34' W 079°36'1816.9
2017-Jan-05 12:19N 24°52' W 079°40'1213.8
2017-Jan-05 11:29N 25°03' W 079°45'1312.9
2017-Jan-05 10:31N 25°14' W 079°52'1212.2
2017-Jan-05 09:33N 25°25' W 079°55'1111.4
2017-Jan-05 08:33N 25°36' W 079°59'1110.9
2017-Jan-05 07:33N 25°46' W 080°04'5 5.5
2017-Jan-05 06:34N 25°46' W 080°10'0 0.4
2017-Jan-05 05:32N 25°46' W 080°10'0 0.0
2017-Jan-05 04:29N 25°46' W 080°10'0 0.0
2017-Jan-05 03:31N 25°46' W 080°10'0 0.0
2017-Jan-05 02:31N 25°46' W 080°10'0 0.0
2017-Jan-05 01:34N 25°46' W 080°10'0 0.0
2017-Jan-05 00:33N 25°46' W 080°10'0 0.0
2017-Jan-04 23:33N 25°46' W 080°10'0 0.0
2017-Jan-04 22:32N 25°46' W 080°10'0 0.0
2017-Jan-04 21:32N 25°46' W 080°10'0 0.0
2017-Jan-04 20:31N 25°46' W 080°10'0 0.0
2017-Jan-04 19:31N 25°46' W 080°10'0 0.0
2017-Jan-04 18:33N 25°46' W 080°10'0 0.0
2017-Jan-04 17:33N 25°46' W 080°10'0 0.0
2017-Jan-04 16:33N 25°46' W 080°10'0 0.0
2017-Jan-04 15:32N 25°46' W 080°10'0 0.0
2017-Jan-04 14:32N 25°46' W 080°10'0 0.0
2017-Jan-04 13:31N 25°46' W 080°10'0 0.0
2017-Jan-04 12:31N 25°46' W 080°10'0 0.0
2017-Jan-04 11:33N 25°46' W 080°10'0 0.0
2017-Jan-04 10:33N 25°46' W 080°10'2 1.8
2017-Jan-04 09:33N 25°46' W 080°08'6 6.4
2017-Jan-04 08:33N 25°44' W 080°01'9 9.1
2017-Jan-04 07:33N 25°35' W 079°60'1413.9
2017-Jan-04 06:33N 25°21' W 080°00'2019.4
2017-Jan-04 05:31N 25°01' W 080°00'  
2016-Dec-31 08:08N 29°29' W 094°51'711.6
2016-Dec-31 07:33N 29°34' W 094°56'5 4.5
2016-Dec-31 06:32N 29°37' W 095°00'0 0.0
2016-Dec-31 05:31N 29°37' W 095°00'0 0.0
2016-Dec-31 04:31N 29°37' W 095°00'0 0.0
2016-Dec-31 03:33N 29°37' W 095°00'0 0.0
2016-Dec-31 02:33N 29°37' W 095°00'0 0.0
2016-Dec-31 01:29N 29°37' W 095°00'0 0.0
2016-Dec-31 00:32N 29°37' W 095°00'0 0.0
2016-Dec-30 23:32N 29°37' W 095°00'0 0.0
2016-Dec-30 22:31N 29°37' W 095°00'0 0.0
2016-Dec-30 21:31N 29°37' W 095°00'0 0.0
2016-Dec-30 20:33N 29°37' W 095°00'0 0.0
2016-Dec-30 19:33N 29°37' W 095°00'0 0.0
2016-Dec-30 18:32N 29°37' W 095°00'0 0.0
2016-Dec-30 17:32N 29°37' W 095°00'0 0.0
2016-Dec-30 16:32N 29°37' W 095°00'0 0.0
2016-Dec-30 15:31N 29°37' W 095°00'0 0.0
2016-Dec-30 14:31N 29°37' W 095°00'0 0.0
2016-Dec-30 13:33N 29°37' W 095°00'0 0.0
2016-Dec-30 12:33N 29°37' W 095°00'0 0.0
2016-Dec-30 11:32N 29°37' W 095°00'0 0.0
2016-Dec-30 10:29N 29°37' W 095°00'0 0.0
2016-Dec-30 09:32N 29°37' W 095°00'0 0.0
2016-Dec-30 08:28N 29°37' W 095°00'0 0.0
2016-Dec-30 07:31N 29°37' W 095°00'0 0.0
2016-Dec-30 06:33N 29°37' W 095°00'0 0.0
2016-Dec-30 05:33N 29°37' W 095°00'0 0.0
2016-Dec-30 04:32N 29°37' W 095°00'0 0.0
2016-Dec-30 03:32N 29°37' W 095°00'0 0.0
2016-Dec-30 02:32N 29°37' W 095°00'0 0.0
2016-Dec-30 01:31N 29°37' W 095°00'0 0.0
2016-Dec-30 00:31N 29°37' W 095°00'0 0.0
2016-Dec-29 23:33N 29°37' W 095°00'0 0.0
2016-Dec-29 22:33N 29°37' W 095°00'0 0.0
2016-Dec-29 21:33N 29°37' W 095°00'0 0.0
2016-Dec-29 20:32N 29°37' W 095°00'0 0.0
2016-Dec-29 19:31N 29°37' W 095°00'0 0.0
2016-Dec-29 18:31N 29°37' W 095°00'0 0.0
2016-Dec-29 17:31N 29°37' W 095°00'0 0.0
2016-Dec-29 16:33N 29°37' W 095°00'0 0.2
2016-Dec-29 15:34N 29°37' W 095°00'2 2.2
2016-Dec-29 14:33N 29°37' W 094°58'9 8.5
2016-Dec-29 13:34N 29°30' W 094°52'  

Dump ship's entire track history